sensor_id;sensor_type;location;lat;lon;timestamp;pressure;altitude;pressure_sealevel;temperature;humidity
24788;BME280;12883;52.662;5.196;2023-04-05T00:01:12;102668.59;;;5.90;100.00
24788;BME280;12883;52.662;5.196;2023-04-05T00:03:38;102674.59;;;5.81;100.00
24788;BME280;12883;52.662;5.196;2023-04-05T00:06:04;102669.53;;;5.78;100.00
24788;BME280;12883;52.662;5.196;2023-04-05T00:08:30;102665.00;;;5.80;100.00
24788;BME280;12883;52.662;5.196;2023-04-05T00:10:56;102658.19;;;5.78;100.00
24788;BME280;12883;52.662;5.196;2023-04-05T00:13:21;102659.09;;;5.77;100.00
24788;BME280;12883;52.662;5.196;2023-04-05T00:15:48;102657.00;;;5.71;100.00
24788;BME280;12883;52.662;5.196;2023-04-05T00:18:13;102649.22;;;5.69;100.00
24788;BME280;12883;52.662;5.196;2023-04-05T00:20:52;102646.31;;;5.72;100.00
24788;BME280;12883;52.662;5.196;2023-04-05T00:23:18;102648.72;;;5.64;100.00
24788;BME280;12883;52.662;5.196;2023-04-05T00:25:45;102652.22;;;5.65;100.00
24788;BME280;12883;52.662;5.196;2023-04-05T00:28:11;102655.56;;;5.67;100.00
24788;BME280;12883;52.662;5.196;2023-04-05T00:30:36;102636.03;;;5.58;100.00
24788;BME280;12883;52.662;5.196;2023-04-05T00:33:02;102648.03;;;5.62;100.00
24788;BME280;12883;52.662;5.196;2023-04-05T00:35:28;102622.19;;;5.45;100.00
24788;BME280;12883;52.662;5.196;2023-04-05T00:37:54;102645.03;;;5.56;100.00
24788;BME280;12883;52.662;5.196;2023-04-05T00:40:20;102641.19;;;5.60;100.00
24788;BME280;12883;52.662;5.196;2023-04-05T00:42:46;102638.22;;;5.53;100.00
24788;BME280;12883;52.662;5.196;2023-04-05T00:45:12;102629.00;;;5.48;100.00
24788;BME280;12883;52.662;5.196;2023-04-05T00:47:37;102629.59;;;5.51;100.00
24788;BME280;12883;52.662;5.196;2023-04-05T00:50:04;102631.53;;;5.49;100.00
24788;BME280;12883;52.662;5.196;2023-04-05T00:52:31;102628.66;;;5.41;100.00
24788;BME280;12883;52.662;5.196;2023-04-05T00:54:56;102624.69;;;5.47;100.00
24788;BME280;12883;52.662;5.196;2023-04-05T00:57:22;102624.59;;;5.37;100.00
24788;BME280;12883;52.662;5.196;2023-04-05T00:59:49;102594.59;;;5.18;100.00
24788;BME280;12883;52.662;5.196;2023-04-05T01:02:35;102625.22;;;5.30;100.00
24788;BME280;12883;52.662;5.196;2023-04-05T01:05:28;102621.25;;;5.24;100.00
24788;BME280;12883;52.662;5.196;2023-04-05T01:10:30;102618.50;;;5.26;100.00
24788;BME280;12883;52.662;5.196;2023-04-05T01:12:59;102612.28;;;5.27;100.00
24788;BME280;12883;52.662;5.196;2023-04-05T01:15:25;102614.69;;;5.30;100.00
24788;BME280;12883;52.662;5.196;2023-04-05T01:17:51;102609.06;;;5.23;100.00
24788;BME280;12883;52.662;5.196;2023-04-05T01:20:18;102604.28;;;5.17;100.00
24788;BME280;12883;52.662;5.196;2023-04-05T01:30:34;102589.59;;;5.04;100.00
24788;BME280;12883;52.662;5.196;2023-04-05T01:36:09;102585.63;;;5.09;100.00
24788;BME280;12883;52.662;5.196;2023-04-05T01:38:41;102587.53;;;5.07;100.00
24788;BME280;12883;52.662;5.196;2023-04-05T01:41:08;102596.41;;;5.06;100.00
24788;BME280;12883;52.662;5.196;2023-04-05T01:43:33;102541.63;;;4.67;100.00
24788;BME280;12883;52.662;5.196;2023-04-05T01:45:59;102577.50;;;5.01;100.00
24788;BME280;12883;52.662;5.196;2023-04-05T01:48:24;102575.13;;;4.98;100.00
24788;BME280;12883;52.662;5.196;2023-04-05T01:50:49;102580.63;;;5.06;100.00
24788;BME280;12883;52.662;5.196;2023-04-05T01:53:15;102573.91;;;5.02;100.00
24788;BME280;12883;52.662;5.196;2023-04-05T01:55:40;102580.25;;;5.00;100.00
24788;BME280;12883;52.662;5.196;2023-04-05T01:58:05;102575.84;;;5.00;100.00
24788;BME280;12883;52.662;5.196;2023-04-05T02:00:31;102547.50;;;4.93;100.00
24788;BME280;12883;52.662;5.196;2023-04-05T02:02:56;102569.59;;;5.01;100.00
24788;BME280;12883;52.662;5.196;2023-04-05T02:05:22;102565.06;;;5.03;100.00
24788;BME280;12883;52.662;5.196;2023-04-05T02:07:47;102554.53;;;5.03;100.00
24788;BME280;12883;52.662;5.196;2023-04-05T02:10:13;102554.91;;;4.99;100.00
24788;BME280;12883;52.662;5.196;2023-04-05T02:12:39;102550.94;;;5.04;100.00
24788;BME280;12883;52.662;5.196;2023-04-05T02:15:05;102555.97;;;4.96;100.00
24788;BME280;12883;52.662;5.196;2023-04-05T02:17:31;102547.84;;;4.99;100.00
24788;BME280;12883;52.662;5.196;2023-04-05T02:19:58;102536.97;;;4.93;100.00
24788;BME280;12883;52.662;5.196;2023-04-05T02:22:33;102544.03;;;4.81;100.00
24788;BME280;12883;52.662;5.196;2023-04-05T02:24:58;102547.63;;;4.80;100.00
24788;BME280;12883;52.662;5.196;2023-04-05T02:27:25;102549.06;;;4.73;100.00
24788;BME280;12883;52.662;5.196;2023-04-05T02:29:50;102539.72;;;4.69;100.00
24788;BME280;12883;52.662;5.196;2023-04-05T02:32:17;102541.53;;;4.69;100.00
24788;BME280;12883;52.662;5.196;2023-04-05T02:34:42;102544.50;;;4.64;100.00
24788;BME280;12883;52.662;5.196;2023-04-05T02:37:07;102545.69;;;4.60;100.00
24788;BME280;12883;52.662;5.196;2023-04-05T02:39:33;102533.25;;;4.62;100.00
24788;BME280;12883;52.662;5.196;2023-04-05T02:41:58;102537.69;;;4.51;100.00
24788;BME280;12883;52.662;5.196;2023-04-05T02:44:24;102508.75;;;4.29;100.00
24788;BME280;12883;52.662;5.196;2023-04-05T02:46:49;102536.84;;;4.51;100.00
24788;BME280;12883;52.662;5.196;2023-04-05T02:49:15;102539.97;;;4.66;100.00
24788;BME280;12883;52.662;5.196;2023-04-05T02:51:40;102527.53;;;4.68;100.00
24788;BME280;12883;52.662;5.196;2023-04-05T02:54:06;102530.91;;;4.70;100.00
24788;BME280;12883;52.662;5.196;2023-04-05T02:56:31;102517.97;;;4.67;100.00
24788;BME280;12883;52.662;5.196;2023-04-05T02:58:56;102518.22;;;4.64;100.00
24788;BME280;12883;52.662;5.196;2023-04-05T03:01:22;102520.00;;;4.64;100.00
24788;BME280;12883;52.662;5.196;2023-04-05T03:03:48;102522.28;;;4.68;100.00
24788;BME280;12883;52.662;5.196;2023-04-05T03:06:13;102514.88;;;4.73;100.00
24788;BME280;12883;52.662;5.196;2023-04-05T03:08:39;102520.00;;;4.64;100.00
24788;BME280;12883;52.662;5.196;2023-04-05T03:11:09;102502.09;;;4.58;100.00
24788;BME280;12883;52.662;5.196;2023-04-05T03:13:35;102466.72;;;4.40;100.00
24788;BME280;12883;52.662;5.196;2023-04-05T03:16:01;102439.00;;;4.25;100.00
24788;BME280;12883;52.662;5.196;2023-04-05T03:18:26;102507.22;;;4.59;100.00
24788;BME280;12883;52.662;5.196;2023-04-05T03:20:54;102505.31;;;4.61;100.00
24788;BME280;12883;52.662;5.196;2023-04-05T03:23:27;102514.16;;;4.50;100.00
24788;BME280;12883;52.662;5.196;2023-04-05T03:26:00;102500.53;;;4.55;100.00
24788;BME280;12883;52.662;5.196;2023-04-05T03:28:28;102500.53;;;4.55;100.00
24788;BME280;12883;52.662;5.196;2023-04-05T03:30:54;102507.09;;;4.50;100.00
24788;BME280;12883;52.662;5.196;2023-04-05T03:33:20;102488.13;;;4.36;100.00
24788;BME280;12883;52.662;5.196;2023-04-05T03:35:46;102498.38;;;4.39;100.00
24788;BME280;12883;52.662;5.196;2023-04-05T03:38:11;102490.50;;;4.50;100.00
24788;BME280;12883;52.662;5.196;2023-04-05T03:40:37;102485.72;;;4.44;100.00
24788;BME280;12883;52.662;5.196;2023-04-05T03:43:03;102502.44;;;4.53;100.00
24788;BME280;12883;52.662;5.196;2023-04-05T03:45:28;102497.56;;;4.60;100.00
24788;BME280;12883;52.662;5.196;2023-04-05T03:47:54;102493.50;;;4.56;100.00
24788;BME280;12883;52.662;5.196;2023-04-05T03:50:20;102498.50;;;4.59;100.00
24788;BME280;12883;52.662;5.196;2023-04-05T03:52:45;102495.66;;;4.62;100.00
24788;BME280;12883;52.662;5.196;2023-04-05T03:55:11;102496.72;;;4.59;100.00
24788;BME280;12883;52.662;5.196;2023-04-05T03:57:38;102490.16;;;4.54;100.00
24788;BME280;12883;52.662;5.196;2023-04-05T04:00:04;102496.00;;;4.57;100.00
24788;BME280;12883;52.662;5.196;2023-04-05T04:02:48;102490.50;;;4.50;100.00
24788;BME280;12883;52.662;5.196;2023-04-05T04:05:15;102486.66;;;4.53;100.00
24788;BME280;12883;52.662;5.196;2023-04-05T04:07:41;102511.03;;;4.55;100.00
24788;BME280;12883;52.662;5.196;2023-04-05T04:10:09;102501.38;;;4.56;100.00
24788;BME280;12883;52.662;5.196;2023-04-05T04:12:35;102490.84;;;4.56;100.00
24788;BME280;12883;52.662;5.196;2023-04-05T04:15:01;102496.13;;;4.56;100.00
24788;BME280;12883;52.662;5.196;2023-04-05T04:17:34;102489.78;;;4.47;100.00
24788;BME280;12883;52.662;5.196;2023-04-05T04:19:59;102503.63;;;4.60;100.00
24788;BME280;12883;52.662;5.196;2023-04-05T04:22:25;102495.25;;;4.55;100.00
24788;BME280;12883;52.662;5.196;2023-04-05T04:24:57;102481.75;;;4.38;100.00
24788;BME280;12883;52.662;5.196;2023-04-05T04:27:27;102496.97;;;4.57;100.00
24788;BME280;12883;52.662;5.196;2023-04-05T04:29:54;102496.22;;;4.54;100.00
24788;BME280;12883;52.662;5.196;2023-04-05T04:32:27;102500.31;;;4.58;100.00
24788;BME280;12883;52.662;5.196;2023-04-05T04:35:15;102495.88;;;4.59;100.00
24788;BME280;12883;52.662;5.196;2023-04-05T04:37:53;102494.56;;;4.64;100.00
24788;BME280;12883;52.662;5.196;2023-04-05T04:40:31;102500.91;;;4.62;100.00
24788;BME280;12883;52.662;5.196;2023-04-05T04:45:29;102492.91;;;4.63;100.00
24788;BME280;12883;52.662;5.196;2023-04-05T04:47:58;102494.22;;;4.69;100.00
24788;BME280;12883;52.662;5.196;2023-04-05T04:50:25;102491.31;;;4.72;100.00
24788;BME280;12883;52.662;5.196;2023-04-05T04:52:51;102489.75;;;4.69;100.00
24788;BME280;12883;52.662;5.196;2023-04-05T04:55:16;102492.41;;;4.69;100.00
24788;BME280;12883;52.662;5.196;2023-04-05T04:57:42;102492.88;;;4.74;100.00
24788;BME280;12883;52.662;5.196;2023-04-05T05:00:09;102493.13;;;4.71;100.00
24788;BME280;12883;52.662;5.196;2023-04-05T05:02:40;102488.56;;;4.62;100.00
24788;BME280;12883;52.662;5.196;2023-04-05T05:05:06;102486.69;;;4.64;100.00
24788;BME280;12883;52.662;5.196;2023-04-05T05:07:33;102482.38;;;4.63;100.00
24788;BME280;12883;52.662;5.196;2023-04-05T05:09:58;102482.13;;;4.66;100.00
24788;BME280;12883;52.662;5.196;2023-04-05T05:12:23;102476.63;;;4.69;100.00
24788;BME280;12883;52.662;5.196;2023-04-05T05:14:51;102480.47;;;4.65;100.00
24788;BME280;12883;52.662;5.196;2023-04-05T05:17:16;102475.81;;;4.69;100.00
24788;BME280;12883;52.662;5.196;2023-04-05T05:19:41;102478.19;;;4.72;100.00
24788;BME280;12883;52.662;5.196;2023-04-05T05:22:07;102468.88;;;4.68;100.00
24788;BME280;12883;52.662;5.196;2023-04-05T05:24:32;102479.84;;;4.73;100.00
24788;BME280;12883;52.662;5.196;2023-04-05T05:26:57;102481.66;;;4.72;100.00
24788;BME280;12883;52.662;5.196;2023-04-05T05:29:23;102484.28;;;4.72;100.00
24788;BME280;12883;52.662;5.196;2023-04-05T05:31:48;102483.31;;;4.73;100.00
24788;BME280;12883;52.662;5.196;2023-04-05T05:34:14;102483.59;;;4.70;100.00
24788;BME280;12883;52.662;5.196;2023-04-05T05:36:40;102483.59;;;4.70;100.00
24788;BME280;12883;52.662;5.196;2023-04-05T05:39:05;102478.06;;;4.73;100.00
24788;BME280;12883;52.662;5.196;2023-04-05T05:41:32;102489.91;;;4.68;100.00
24788;BME280;12883;52.662;5.196;2023-04-05T05:43:57;102477.47;;;4.70;100.00
24788;BME280;12883;52.662;5.196;2023-04-05T05:46:22;102493.25;;;4.70;100.00
24788;BME280;12883;52.662;5.196;2023-04-05T05:48:48;102487.38;;;4.66;100.00
24788;BME280;12883;52.662;5.196;2023-04-05T05:51:13;102490.03;;;4.77;100.00
24788;BME280;12883;52.662;5.196;2023-04-05T05:53:39;102481.41;;;4.75;100.00
24788;BME280;12883;52.662;5.196;2023-04-05T05:56:05;102489.66;;;4.71;100.00
24788;BME280;12883;52.662;5.196;2023-04-05T05:58:31;102491.69;;;4.78;100.00
24788;BME280;12883;52.662;5.196;2023-04-05T06:00:56;102473.06;;;4.59;100.00
24788;BME280;12883;52.662;5.196;2023-04-05T06:03:23;102486.06;;;4.72;100.00
24788;BME280;12883;52.662;5.196;2023-04-05T06:05:57;102495.03;;;4.80;100.00
24788;BME280;12883;52.662;5.196;2023-04-05T06:08:24;102487.84;;;4.82;100.00
24788;BME280;12883;52.662;5.196;2023-04-05T06:10:51;102482.59;;;4.82;100.00
24788;BME280;12883;52.662;5.196;2023-04-05T06:13:16;102479.00;;;4.83;100.00
24788;BME280;12883;52.662;5.196;2023-04-05T06:15:42;102494.88;;;4.93;100.00
24788;BME280;12883;52.662;5.196;2023-04-05T06:18:08;102495.25;;;4.99;100.00
24788;BME280;12883;52.662;5.196;2023-04-05T06:20:33;102486.28;;;4.91;100.00
24788;BME280;12883;52.662;5.196;2023-04-05T06:23:04;102476.69;;;5.01;100.00
24788;BME280;12883;52.662;5.196;2023-04-05T06:25:30;102489.03;;;5.11;100.00
24788;BME280;12883;52.662;5.196;2023-04-05T06:27:55;102487.09;;;5.13;100.00
24788;BME280;12883;52.662;5.196;2023-04-05T06:30:20;102470.56;;;5.22;100.00
24788;BME280;12883;52.662;5.196;2023-04-05T06:32:46;102475.53;;;5.36;100.00
24788;BME280;12883;52.662;5.196;2023-04-05T06:35:12;102476.38;;;5.37;100.00
24788;BME280;12883;52.662;5.196;2023-04-05T06:37:38;102482.25;;;5.40;100.00
24788;BME280;12883;52.662;5.196;2023-04-05T06:40:03;102478.16;;;5.47;100.00
24788;BME280;12883;52.662;5.196;2023-04-05T06:42:29;102478.94;;;5.59;100.00
24788;BME280;12883;52.662;5.196;2023-04-05T06:44:54;102476.41;;;5.57;100.00
24788;BME280;12883;52.662;5.196;2023-04-05T06:47:20;102487.88;;;5.67;100.00
24788;BME280;12883;52.662;5.196;2023-04-05T06:49:45;102481.38;;;5.71;100.00
24788;BME280;12883;52.662;5.196;2023-04-05T06:52:10;102480.75;;;5.79;100.00
24788;BME280;12883;52.662;5.196;2023-04-05T06:54:36;102485.84;;;5.91;100.00
24788;BME280;12883;52.662;5.196;2023-04-05T06:57:03;102437.31;;;5.73;100.00
24788;BME280;12883;52.662;5.196;2023-04-05T06:59:28;102465.13;;;5.98;100.00
24788;BME280;12883;52.662;5.196;2023-04-05T07:01:54;102459.25;;;6.15;100.00
24788;BME280;12883;52.662;5.196;2023-04-05T07:04:20;102471.50;;;6.25;100.00
24788;BME280;12883;52.662;5.196;2023-04-05T07:06:45;102476.66;;;6.27;100.00
24788;BME280;12883;52.662;5.196;2023-04-05T07:09:11;102473.34;;;6.34;100.00
24788;BME280;12883;52.662;5.196;2023-04-05T07:11:36;102478.69;;;6.44;100.00
24788;BME280;12883;52.662;5.196;2023-04-05T07:14:04;102483.47;;;6.59;100.00
24788;BME280;12883;52.662;5.196;2023-04-05T07:16:29;102475.66;;;6.48;100.00
24788;BME280;12883;52.662;5.196;2023-04-05T07:18:55;102471.78;;;6.52;100.00
24788;BME280;12883;52.662;5.196;2023-04-05T07:21:21;102477.56;;;6.76;100.00
24788;BME280;12883;52.662;5.196;2023-04-05T07:23:47;102474.66;;;6.79;100.00
24788;BME280;12883;52.662;5.196;2023-04-05T07:26:12;102465.00;;;6.99;100.00
24788;BME280;12883;52.662;5.196;2023-04-05T07:28:38;102468.63;;;6.98;100.00
24788;BME280;12883;52.662;5.196;2023-04-05T07:31:04;102470.84;;;7.02;100.00
24788;BME280;12883;52.662;5.196;2023-04-05T07:33:30;102469.72;;;6.95;100.00
24788;BME280;12883;52.662;5.196;2023-04-05T07:35:56;102470.59;;;7.05;100.00
24788;BME280;12883;52.662;5.196;2023-04-05T07:38:22;102466.72;;;7.19;100.00
24788;BME280;12883;52.662;5.196;2023-04-05T07:40:48;102464.03;;;7.09;100.00
24788;BME280;12883;52.662;5.196;2023-04-05T07:43:14;102465.88;;;7.09;100.00
24788;BME280;12883;52.662;5.196;2023-04-05T07:45:40;102465.47;;;7.32;100.00
24788;BME280;12883;52.662;5.196;2023-04-05T07:48:05;102478.66;;;7.32;100.00
24788;BME280;12883;52.662;5.196;2023-04-05T07:50:30;102479.22;;;7.45;100.00
24788;BME280;12883;52.662;5.196;2023-04-05T07:52:56;102467.28;;;7.60;100.00
24788;BME280;12883;52.662;5.196;2023-04-05T07:55:21;102469.09;;;7.69;100.00
24788;BME280;12883;52.662;5.196;2023-04-05T07:57:46;102472.00;;;7.66;100.00
24788;BME280;12883;52.662;5.196;2023-04-05T08:00:12;102462.00;;;7.70;100.00
24788;BME280;12883;52.662;5.196;2023-04-05T08:02:38;102469.09;;;7.69;100.00
24788;BME280;12883;52.662;5.196;2023-04-05T08:05:04;102460.88;;;7.72;100.00
24788;BME280;12883;52.662;5.196;2023-04-05T08:07:29;102465.34;;;7.81;100.00
24788;BME280;12883;52.662;5.196;2023-04-05T08:09:55;102471.75;;;7.79;100.00
24788;BME280;12883;52.662;5.196;2023-04-05T08:12:22;102428.50;;;7.70;100.00
24788;BME280;12883;52.662;5.196;2023-04-05T08:14:48;102465.84;;;7.94;100.00
24788;BME280;12883;52.662;5.196;2023-04-05T08:17:14;102473.53;;;7.97;100.00
24788;BME280;12883;52.662;5.196;2023-04-05T08:19:40;102470.88;;;8.07;100.00
24788;BME280;12883;52.662;5.196;2023-04-05T08:22:05;102467.50;;;8.14;100.00
24788;BME280;12883;52.662;5.196;2023-04-05T08:24:31;102466.97;;;8.20;100.00
24788;BME280;12883;52.662;5.196;2023-04-05T08:26:56;102464.59;;;8.17;100.00
24788;BME280;12883;52.662;5.196;2023-04-05T08:29:21;102460.00;;;8.19;100.00
24788;BME280;12883;52.662;5.196;2023-04-05T08:31:47;102460.53;;;8.32;100.00
24788;BME280;12883;52.662;5.196;2023-04-05T08:34:12;102464.69;;;8.35;100.00
24788;BME280;12883;52.662;5.196;2023-04-05T08:36:38;102460.56;;;8.23;100.00
24788;BME280;12883;52.662;5.196;2023-04-05T08:39:03;102468.69;;;8.39;100.00
24788;BME280;12883;52.662;5.196;2023-04-05T08:41:35;102460.63;;;8.40;100.00
24788;BME280;12883;52.662;5.196;2023-04-05T08:44:03;102460.22;;;8.35;100.00
24788;BME280;12883;52.662;5.196;2023-04-05T08:46:30;102450.34;;;8.37;100.00
24788;BME280;12883;52.662;5.196;2023-04-05T08:48:57;102450.72;;;8.42;100.00
24788;BME280;12883;52.662;5.196;2023-04-05T08:51:24;102442.66;;;8.44;100.00
24788;BME280;12883;52.662;5.196;2023-04-05T08:53:50;102450.66;;;8.61;100.00
24788;BME280;12883;52.662;5.196;2023-04-05T08:56:20;102461.56;;;8.58;100.00
24788;BME280;12883;52.662;5.196;2023-04-05T08:58:57;102459.44;;;8.62;100.00
24788;BME280;12883;52.662;5.196;2023-04-05T09:01:25;102443.75;;;8.78;100.00
24788;BME280;12883;52.662;5.196;2023-04-05T09:03:53;102448.66;;;8.73;100.00
24788;BME280;12883;52.662;5.196;2023-04-05T09:06:21;102446.41;;;8.78;100.00
24788;BME280;12883;52.662;5.196;2023-04-05T09:08:47;102448.56;;;8.92;100.00
24788;BME280;12883;52.662;5.196;2023-04-05T09:11:14;102408.81;;;8.74;100.00
24788;BME280;12883;52.662;5.196;2023-04-05T09:13:40;102450.97;;;8.85;100.00
24788;BME280;12883;52.662;5.196;2023-04-05T09:16:06;102448.03;;;8.88;100.00
24788;BME280;12883;52.662;5.196;2023-04-05T09:18:31;102441.16;;;8.95;100.00
24788;BME280;12883;52.662;5.196;2023-04-05T09:21:04;102400.78;;;8.66;100.00
24788;BME280;12883;52.662;5.196;2023-04-05T09:23:30;102435.94;;;9.03;100.00
24788;BME280;12883;52.662;5.196;2023-04-05T09:25:55;102405.31;;;8.74;100.00
24788;BME280;12883;52.662;5.196;2023-04-05T09:28:21;102422.50;;;9.14;100.00
24788;BME280;12883;52.662;5.196;2023-04-05T09:30:46;102446.00;;;9.17;100.00
24788;BME280;12883;52.662;5.196;2023-04-05T09:33:17;102442.03;;;9.13;100.00
24788;BME280;12883;52.662;5.196;2023-04-05T09:35:43;102433.69;;;9.08;100.00
24788;BME280;12883;52.662;5.196;2023-04-05T09:38:08;102432.78;;;9.17;100.00
24788;BME280;12883;52.662;5.196;2023-04-05T09:40:40;102428.53;;;9.24;100.00
24788;BME280;12883;52.662;5.196;2023-04-05T09:43:07;102421.25;;;9.26;100.00
24788;BME280;12883;52.662;5.196;2023-04-05T09:45:38;102434.75;;;9.33;100.00
24788;BME280;12883;52.662;5.196;2023-04-05T09:48:05;102442.78;;;9.23;98.60
24788;BME280;12883;52.662;5.196;2023-04-05T09:50:31;102436.72;;;9.13;95.95
24788;BME280;12883;52.662;5.196;2023-04-05T09:53:12;102428.09;;;9.29;97.24
24788;BME280;12883;52.662;5.196;2023-04-05T09:55:43;102436.19;;;9.45;99.94
24788;BME280;12883;52.662;5.196;2023-04-05T09:58:16;102441.50;;;9.45;98.16
24788;BME280;12883;52.662;5.196;2023-04-05T10:00:50;102433.44;;;9.37;96.05
24788;BME280;12883;52.662;5.196;2023-04-05T10:03:18;102432.56;;;9.46;95.58
24788;BME280;12883;52.662;5.196;2023-04-05T10:05:44;102433.91;;;9.49;96.16
24788;BME280;12883;52.662;5.196;2023-04-05T10:08:10;102415.69;;;9.29;96.90
24788;BME280;12883;52.662;5.196;2023-04-05T10:10:37;102418.97;;;9.66;92.38
24788;BME280;12883;52.662;5.196;2023-04-05T10:13:10;102429.06;;;9.62;94.50
24788;BME280;12883;52.662;5.196;2023-04-05T10:15:36;102384.78;;;9.55;97.75
24788;BME280;12883;52.662;5.196;2023-04-05T10:18:09;102417.31;;;9.65;96.33
24788;BME280;12883;52.662;5.196;2023-04-05T10:20:38;102428.53;;;9.59;95.70
24788;BME280;12883;52.662;5.196;2023-04-05T10:23:11;102414.09;;;9.53;95.86
24788;BME280;12883;52.662;5.196;2023-04-05T10:26:07;102409.22;;;9.66;97.30
24788;BME280;12883;52.662;5.196;2023-04-05T10:28:36;102415.94;;;9.78;99.43
24788;BME280;12883;52.662;5.196;2023-04-05T10:33:44;102414.72;;;9.73;94.41
24788;BME280;12883;52.662;5.196;2023-04-05T10:39:14;102366.19;;;9.47;91.84
24788;BME280;12883;52.662;5.196;2023-04-05T10:41:46;102339.56;;;9.56;96.55
24788;BME280;12883;52.662;5.196;2023-04-05T10:44:11;102399.56;;;9.83;91.14
24788;BME280;12883;52.662;5.196;2023-04-05T10:46:39;102401.69;;;9.79;91.53
24788;BME280;12883;52.662;5.196;2023-04-05T10:49:45;102398.78;;;9.90;95.70
24788;BME280;12883;52.662;5.196;2023-04-05T10:52:11;102390.63;;;9.84;93.75
24788;BME280;12883;52.662;5.196;2023-04-05T10:54:37;102390.19;;;9.96;93.74
24788;BME280;12883;52.662;5.196;2023-04-05T10:57:04;102392.19;;;9.94;93.63
24788;BME280;12883;52.662;5.196;2023-04-05T10:59:32;102384.38;;;9.93;92.54
24788;BME280;12883;52.662;5.196;2023-04-05T11:01:58;102381.16;;;9.81;90.86
24788;BME280;12883;52.662;5.196;2023-04-05T11:04:24;102371.50;;;9.98;92.79
24788;BME280;12883;52.662;5.196;2023-04-05T11:09:34;102379.56;;;10.14;88.56
24788;BME280;12883;52.662;5.196;2023-04-05T11:12:00;102371.59;;;10.14;90.50
24788;BME280;12883;52.662;5.196;2023-04-05T11:14:36;102374.50;;;10.28;89.56
24788;BME280;12883;52.662;5.196;2023-04-05T11:17:03;102368.06;;;10.31;86.53
24788;BME280;12883;52.662;5.196;2023-04-05T11:19:48;102376.38;;;10.10;83.51
24788;BME280;12883;52.662;5.196;2023-04-05T11:22:24;102372.50;;;10.30;87.29
24788;BME280;12883;52.662;5.196;2023-04-05T11:24:55;102378.66;;;10.31;83.41
24788;BME280;12883;52.662;5.196;2023-04-05T11:27:25;102363.03;;;10.28;81.46
24788;BME280;12883;52.662;5.196;2023-04-05T11:29:52;102374.81;;;10.00;77.25
24788;BME280;12883;52.662;5.196;2023-04-05T11:32:19;102338.63;;;9.91;80.23
24788;BME280;12883;52.662;5.196;2023-04-05T11:34:56;102371.63;;;10.22;77.55
24788;BME280;12883;52.662;5.196;2023-04-05T11:37:23;102365.00;;;10.18;74.74
24788;BME280;12883;52.662;5.196;2023-04-05T11:40:27;102366.66;;;10.19;73.07
24788;BME280;12883;52.662;5.196;2023-04-05T11:43:01;102357.16;;;10.08;71.24
24788;BME280;12883;52.662;5.196;2023-04-05T11:45:29;102343.94;;;9.91;70.86
24788;BME280;12883;52.662;5.196;2023-04-05T11:47:56;102358.03;;;10.17;73.48
24788;BME280;12883;52.662;5.196;2023-04-05T11:50:21;102357.25;;;9.99;68.65
24788;BME280;12883;52.662;5.196;2023-04-05T11:53:06;102359.16;;;10.06;68.01
24788;BME280;12883;52.662;5.196;2023-04-05T11:55:31;102347.06;;;10.12;68.77
24788;BME280;12883;52.662;5.196;2023-04-05T11:57:57;102346.94;;;10.21;70.58
24788;BME280;12883;52.662;5.196;2023-04-05T12:00:22;102350.53;;;10.46;70.57
24788;BME280;12883;52.662;5.196;2023-04-05T12:02:47;102338.19;;;10.29;69.21
24788;BME280;12883;52.662;5.196;2023-04-05T12:05:13;102325.50;;;10.56;72.80
24788;BME280;12883;52.662;5.196;2023-04-05T12:07:38;102329.44;;;10.36;68.91
24788;BME280;12883;52.662;5.196;2023-04-05T12:10:06;102335.88;;;10.34;67.71
24788;BME280;12883;52.662;5.196;2023-04-05T12:12:40;102321.00;;;10.49;70.56
24788;BME280;12883;52.662;5.196;2023-04-05T12:15:08;102320.22;;;10.64;72.25
24788;BME280;12883;52.662;5.196;2023-04-05T12:17:45;102306.66;;;10.75;71.12
24788;BME280;12883;52.662;5.196;2023-04-05T12:20:13;102317.72;;;10.71;68.00
24788;BME280;12883;52.662;5.196;2023-04-05T12:22:41;102320.88;;;10.58;67.89
24788;BME280;12883;52.662;5.196;2023-04-05T12:25:08;102310.59;;;10.63;65.62
24788;BME280;12883;52.662;5.196;2023-04-05T12:27:34;102315.91;;;10.71;65.76
24788;BME280;12883;52.662;5.196;2023-04-05T12:30:16;102313.78;;;10.75;66.51
24788;BME280;12883;52.662;5.196;2023-04-05T12:32:46;102300.63;;;10.57;67.43
24788;BME280;12883;52.662;5.196;2023-04-05T12:35:14;102306.78;;;10.58;67.88
24788;BME280;12883;52.662;5.196;2023-04-05T12:37:40;102310.59;;;10.55;66.03
24788;BME280;12883;52.662;5.196;2023-04-05T12:40:06;102308.75;;;10.64;67.82
24788;BME280;12883;52.662;5.196;2023-04-05T12:42:32;102310.75;;;10.54;68.00
24788;BME280;12883;52.662;5.196;2023-04-05T12:45:09;102305.81;;;10.83;70.86
24788;BME280;12883;52.662;5.196;2023-04-05T12:47:46;102298.50;;;10.85;68.90
24788;BME280;12883;52.662;5.196;2023-04-05T12:50:16;102278.88;;;10.54;68.15
24788;BME280;12883;52.662;5.196;2023-04-05T12:52:56;102295.50;;;10.64;69.45
24788;BME280;12883;52.662;5.196;2023-04-05T12:55:22;102294.00;;;10.61;66.92
24788;BME280;12883;52.662;5.196;2023-04-05T12:57:48;102285.72;;;10.64;68.40
24788;BME280;12883;52.662;5.196;2023-04-05T13:00:15;102287.22;;;10.75;69.90
24788;BME280;12883;52.662;5.196;2023-04-05T13:02:40;102288.56;;;10.79;69.03
24788;BME280;12883;52.662;5.196;2023-04-05T13:05:05;102286.88;;;10.78;69.62
24788;BME280;12883;52.662;5.196;2023-04-05T13:07:31;102285.22;;;10.77;72.14
24788;BME280;12883;52.662;5.196;2023-04-05T13:09:56;102282.06;;;10.73;68.96
24788;BME280;12883;52.662;5.196;2023-04-05T13:12:22;102276.09;;;10.71;69.20
24788;BME280;12883;52.662;5.196;2023-04-05T13:14:47;102267.28;;;10.63;69.81
24788;BME280;12883;52.662;5.196;2023-04-05T13:17:12;102274.25;;;10.64;67.58